createdAt,value
2022-12-19T00:01:36.614Z,23.40
2022-12-19T00:04:08.144Z,22.13
2022-12-19T00:06:37.945Z,24.27
2022-12-19T00:09:10.986Z,21.90
2022-12-19T00:11:38.969Z,22.40
2022-12-19T00:14:06.668Z,21.85
2022-12-19T00:16:33.963Z,21.35
2022-12-19T00:19:01.873Z,22.10
2022-12-19T00:21:31.207Z,20.83
2022-12-19T00:24:03.091Z,20.33
2022-12-19T00:26:31.912Z,20.27
2022-12-19T00:29:00.817Z,19.77
2022-12-19T00:33:56.551Z,18.83
2022-12-19T00:36:25.354Z,20.90
2022-12-19T00:38:53.904Z,20.50
2022-12-19T00:41:26.661Z,19.10
2022-12-19T00:44:01.851Z,20.02
2022-12-19T00:46:30.840Z,20.30
2022-12-19T00:48:58.047Z,20.85
2022-12-19T00:51:33.603Z,19.23
2022-12-19T00:54:00.941Z,17.77
2022-12-19T00:56:37.916Z,18.83
2022-12-19T00:59:05.974Z,19.92
2022-12-19T01:01:36.281Z,18.88
2022-12-19T01:06:52.813Z,18.48
2022-12-19T01:09:21.739Z,20.48
2022-12-19T01:12:07.802Z,18.50
2022-12-19T01:14:35.583Z,18.83
2022-12-19T01:17:02.817Z,18.65
2022-12-19T01:19:31.391Z,18.83
2022-12-19T01:21:58.794Z,19.98
2022-12-19T01:24:26.256Z,19.02
2022-12-19T01:26:53.521Z,18.77
2022-12-19T01:29:20.938Z,19.65
2022-12-19T01:31:48.216Z,18.42
2022-12-19T01:34:15.478Z,18.80
2022-12-19T01:36:42.693Z,17.73
2022-12-19T01:39:09.994Z,18.80
2022-12-19T01:41:38.156Z,20.00
2022-12-19T01:44:07.307Z,18.88
2022-12-19T01:49:16.249Z,17.13
2022-12-19T01:51:47.071Z,17.63
2022-12-19T01:54:27.135Z,17.70
2022-12-19T01:56:56.206Z,18.98
2022-12-19T01:59:27.519Z,17.23
2022-12-19T02:01:58.649Z,18.30
2022-12-19T02:04:32.009Z,18.40
2022-12-19T02:07:08.117Z,19.58
2022-12-19T02:09:45.675Z,19.25
2022-12-19T02:12:12.941Z,21.23
2022-12-19T02:14:40.688Z,19.20
2022-12-19T02:17:21.922Z,19.75
2022-12-19T02:20:08.194Z,18.52
2022-12-19T02:23:06.245Z,16.20
2022-12-19T02:25:51.908Z,18.35
2022-12-19T02:28:51.706Z,18.08
2022-12-19T02:31:25.232Z,18.15
2022-12-19T02:34:10.539Z,17.33
2022-12-19T02:36:42.044Z,17.38
2022-12-19T02:39:35.259Z,18.05
2022-12-19T02:42:03.492Z,17.77
2022-12-19T02:44:40.762Z,18.33
2022-12-19T02:47:09.093Z,17.15
2022-12-19T02:49:37.758Z,17.52
2022-12-19T02:52:19.969Z,17.55
2022-12-19T02:54:52.258Z,17.92
2022-12-19T02:57:28.221Z,16.98
2022-12-19T03:00:18.190Z,18.10
2022-12-19T03:03:00.739Z,16.67
2022-12-19T03:06:06.334Z,16.58
2022-12-19T03:08:57.439Z,18.08
2022-12-19T03:11:25.248Z,17.10
2022-12-19T03:13:56.702Z,18.88
2022-12-19T03:16:24.499Z,17.80
2022-12-19T03:18:55.754Z,17.63
2022-12-19T03:21:39.495Z,17.55
2022-12-19T03:24:08.430Z,16.95
2022-12-19T03:26:43.764Z,17.38
2022-12-19T03:29:30.678Z,17.33
2022-12-19T03:31:59.849Z,19.65
2022-12-19T03:34:47.436Z,18.08
2022-12-19T03:37:17.415Z,18.45
2022-12-19T03:39:48.303Z,18.55
2022-12-19T03:42:35.822Z,18.50
2022-12-19T03:45:05.383Z,18.10
2022-12-19T03:47:39.080Z,18.45
2022-12-19T03:50:06.846Z,16.42
2022-12-19T03:52:52.895Z,18.00
2022-12-19T03:55:32.305Z,17.45
2022-12-19T03:58:19.344Z,19.08
2022-12-19T04:00:48.041Z,19.02
2022-12-19T04:03:17.541Z,18.23
2022-12-19T04:05:47.067Z,18.60
2022-12-19T04:08:14.411Z,18.08
2022-12-19T04:10:54.193Z,18.92
2022-12-19T04:13:30.129Z,18.63
2022-12-19T04:16:18.812Z,18.75
2022-12-19T04:18:51.378Z,18.15
2022-12-19T04:21:25.339Z,19.38
2022-12-19T04:23:57.693Z,19.20
2022-12-19T04:26:25.345Z,18.02
2022-12-19T04:28:56.146Z,19.23
2022-12-19T04:31:23.939Z,19.42
2022-12-19T04:33:51.369Z,18.33
2022-12-19T04:36:18.616Z,19.58
2022-12-19T04:38:45.824Z,20.05
2022-12-19T04:41:13.169Z,19.20
2022-12-19T04:43:40.386Z,18.98
2022-12-19T04:46:07.664Z,20.52
2022-12-19T04:48:36.559Z,18.75
2022-12-19T04:51:04.234Z,18.55
2022-12-19T04:53:32.389Z,18.75
2022-12-19T04:56:06.906Z,21.10
2022-12-19T04:58:34.729Z,19.05
2022-12-19T05:01:03.287Z,19.55
2022-12-19T05:03:30.574Z,18.35
2022-12-19T05:06:08.905Z,20.13
2022-12-19T05:08:37.223Z,20.00
2022-12-19T05:11:05.785Z,20.05
2022-12-19T05:13:33.148Z,20.88
2022-12-19T05:16:05.853Z,19.52
2022-12-19T05:18:33.637Z,20.75
2022-12-19T05:21:00.991Z,20.52
2022-12-19T05:23:28.537Z,19.38
2022-12-19T05:25:58.402Z,18.67
2022-12-19T05:28:25.653Z,21.33
2022-12-19T05:30:52.876Z,19.38
2022-12-19T05:33:20.211Z,20.70
2022-12-19T05:35:49.409Z,19.08
2022-12-19T05:38:16.658Z,20.73
2022-12-19T05:40:43.913Z,20.08
2022-12-19T05:43:11.139Z,21.98
2022-12-19T05:45:40.034Z,20.42
2022-12-19T05:48:07.272Z,20.70
2022-12-19T05:50:36.747Z,21.90
2022-12-19T05:53:03.940Z,21.83
2022-12-19T05:55:31.155Z,21.25
2022-12-19T05:57:58.368Z,21.65
2022-12-19T06:00:25.706Z,20.13
2022-12-19T06:02:53.339Z,21.67
2022-12-19T06:05:20.707Z,21.40
2022-12-19T06:07:48.003Z,22.60
2022-12-19T06:10:15.249Z,21.48
2022-12-19T06:12:42.467Z,21.50
2022-12-19T06:15:10.461Z,22.10
2022-12-19T06:17:40.311Z,22.05
2022-12-19T06:20:08.094Z,21.52
2022-12-19T06:22:35.281Z,21.75
2022-12-19T06:25:02.857Z,20.88
2022-12-19T06:27:30.706Z,22.42
2022-12-19T06:29:57.889Z,21.05
2022-12-19T06:32:25.168Z,21.00
2022-12-19T06:35:07.662Z,21.83
2022-12-19T06:37:38.928Z,21.92
2022-12-19T06:40:07.311Z,20.90
2022-12-19T06:42:34.523Z,21.20
2022-12-19T06:45:01.898Z,20.58
2022-12-19T06:47:29.124Z,20.50
2022-12-19T06:49:56.364Z,20.90
2022-12-19T06:52:23.625Z,21.73
2022-12-19T06:54:52.896Z,22.13
2022-12-19T06:59:47.453Z,20.65
2022-12-19T07:02:24.614Z,22.50
2022-12-19T07:04:58.059Z,21.13
2022-12-19T07:07:25.265Z,20.48
2022-12-19T07:09:53.710Z,21.30
2022-12-19T07:12:20.936Z,22.80
2022-12-19T07:14:53.152Z,21.42
2022-12-19T07:17:21.744Z,20.75
2022-12-19T07:19:51.829Z,22.50
2022-12-19T07:22:19.218Z,22.20
2022-12-19T07:24:46.601Z,26.15
2022-12-19T07:27:15.060Z,26.88
2022-12-19T07:29:42.442Z,21.73
2022-12-19T07:32:09.729Z,23.58
2022-12-19T07:34:36.964Z,22.20
2022-12-19T07:37:04.178Z,20.17
2022-12-19T07:39:31.440Z,22.40
2022-12-19T07:41:58.840Z,20.25
2022-12-19T07:44:26.017Z,18.60
2022-12-19T07:46:53.170Z,19.55
2022-12-19T07:49:22.791Z,18.77
2022-12-19T07:51:50.217Z,18.90
2022-12-19T07:54:17.456Z,18.23
2022-12-19T07:56:44.717Z,17.65
2022-12-19T07:59:13.167Z,17.35
2022-12-19T08:01:40.828Z,17.50
2022-12-19T08:04:08.393Z,17.08
2022-12-19T08:06:41.002Z,17.15
2022-12-19T08:09:08.843Z,17.65
2022-12-19T08:11:36.051Z,16.33
2022-12-19T08:14:03.241Z,16.77
2022-12-19T08:16:30.811Z,17.58
2022-12-19T08:18:58.253Z,15.93
2022-12-19T08:21:25.748Z,16.98
2022-12-19T08:23:53.202Z,17.25
2022-12-19T08:26:25.365Z,16.27
2022-12-19T08:28:57.093Z,16.75
2022-12-19T08:31:26.544Z,16.08
2022-12-19T08:33:55.399Z,16.27
2022-12-19T08:36:23.080Z,16.50
2022-12-19T08:38:50.896Z,15.75
2022-12-19T08:41:18.771Z,16.63
2022-12-19T08:43:53.557Z,16.85
2022-12-19T08:46:21.652Z,15.32
2022-12-19T08:48:49.222Z,17.23
2022-12-19T08:51:17.336Z,16.00
2022-12-19T08:53:46.255Z,15.73
2022-12-19T08:56:14.828Z,16.10
2022-12-19T08:58:42.367Z,16.75
2022-12-19T09:01:13.913Z,15.82
2022-12-19T09:04:00.580Z,16.27
2022-12-19T09:06:29.838Z,16.42
2022-12-19T09:09:00.205Z,16.52
2022-12-19T09:11:28.355Z,15.90
2022-12-19T09:13:57.093Z,15.40
2022-12-19T09:16:25.988Z,16.65
2022-12-19T09:18:54.862Z,16.15
2022-12-19T09:21:23.650Z,15.15
2022-12-19T09:23:52.977Z,16.45
2022-12-19T09:28:49.885Z,14.85
2022-12-19T09:31:20.035Z,15.90
2022-12-19T09:33:47.745Z,16.00
2022-12-19T09:36:16.923Z,14.73
2022-12-19T09:38:44.312Z,14.85
2022-12-19T09:41:20.725Z,14.82
2022-12-19T09:44:09.409Z,14.70
2022-12-19T09:46:52.738Z,15.48
2022-12-19T09:49:26.253Z,15.00
2022-12-19T09:52:33.363Z,14.75
2022-12-19T09:55:17.419Z,14.02
2022-12-19T09:58:06.231Z,14.48
2022-12-19T10:00:45.679Z,15.30
2022-12-19T10:03:20.053Z,15.45
2022-12-19T10:06:29.485Z,15.48
2022-12-19T10:09:03.095Z,14.98
2022-12-19T10:12:43.863Z,14.63
2022-12-19T10:14:48.114Z,15.23
2022-12-19T10:17:51.486Z,16.33
2022-12-19T10:20:34.211Z,14.65
2022-12-19T10:23:42.665Z,14.75
2022-12-19T10:26:21.448Z,15.87
2022-12-19T10:29:17.088Z,15.13
2022-12-19T10:31:58.651Z,14.98
2022-12-19T10:34:40.755Z,15.00
2022-12-19T10:37:36.803Z,15.48
2022-12-19T10:40:13.220Z,15.75
2022-12-19T10:43:32.123Z,14.15
2022-12-19T10:46:02.915Z,14.20
2022-12-19T10:48:31.534Z,15.68
2022-12-19T10:51:05.203Z,15.60
2022-12-19T10:53:34.271Z,16.38
2022-12-19T10:56:11.485Z,15.20
2022-12-19T10:58:43.329Z,16.33
2022-12-19T11:01:17.653Z,15.85
2022-12-19T11:03:51.268Z,16.05
2022-12-19T11:06:46.363Z,16.17
2022-12-19T11:09:40.299Z,15.93
2022-12-19T11:16:42.854Z,16.90
2022-12-19T11:22:13.168Z,17.23
2022-12-19T11:24:29.998Z,16.77
2022-12-19T11:29:25.475Z,16.55
2022-12-19T11:30:05.879Z,18.10
2022-12-19T11:30:48.370Z,17.55
2022-12-19T11:32:45.783Z,16.88
2022-12-19T11:35:24.914Z,17.02
2022-12-19T11:37:58.918Z,18.83
2022-12-19T11:40:33.499Z,17.70
2022-12-19T11:43:42.499Z,18.48
2022-12-19T11:46:22.056Z,18.58
2022-12-19T11:48:57.197Z,19.33
2022-12-19T11:51:45.215Z,20.23
2022-12-19T11:54:23.280Z,17.67
2022-12-19T11:56:51.237Z,18.23
2022-12-19T11:59:40.166Z,19.52
2022-12-19T12:02:38.255Z,19.10
2022-12-19T12:05:58.409Z,19.50
2022-12-19T12:10:51.098Z,19.60
2022-12-19T12:25:48.658Z,20.15
2022-12-19T12:26:41.310Z,20.52
2022-12-19T12:31:21.672Z,20.85
2022-12-19T12:31:23.673Z,20.20
2022-12-19T12:31:49.077Z,21.95
2022-12-19T12:32:04.006Z,21.60
2022-12-19T12:35:38.193Z,21.38
2022-12-19T12:38:44.483Z,21.35
2022-12-19T12:41:14.781Z,21.52
2022-12-19T12:43:49.144Z,21.85
2022-12-19T12:46:22.046Z,22.02
2022-12-19T12:49:04.672Z,21.27
2022-12-19T12:51:33.297Z,22.10
2022-12-19T12:54:10.153Z,23.67
2022-12-19T12:56:37.525Z,22.65
2022-12-19T12:59:19.942Z,23.35
2022-12-19T13:01:54.839Z,22.42
2022-12-19T13:04:28.564Z,22.10
2022-12-19T13:07:16.363Z,22.42
2022-12-19T13:09:44.026Z,22.77
2022-12-19T13:12:45.115Z,23.23
2022-12-19T13:15:27.683Z,23.25
2022-12-19T13:17:54.965Z,24.10
2022-12-19T13:20:26.558Z,23.33
2022-12-19T13:23:01.040Z,23.50
2022-12-19T13:25:33.871Z,23.27
2022-12-19T13:28:04.196Z,23.63
2022-12-19T13:30:50.093Z,23.13
2022-12-19T13:33:22.611Z,23.73
2022-12-19T13:37:55.661Z,25.35
2022-12-19T13:39:58.315Z,25.23
2022-12-19T13:42:17.571Z,25.97
2022-12-19T13:44:44.833Z,24.05
2022-12-19T13:47:15.653Z,25.98
2022-12-19T13:49:54.676Z,26.83
2022-12-19T13:52:22.908Z,26.45
2022-12-19T13:54:52.256Z,25.77
2022-12-19T14:00:00.089Z,25.42
2022-12-19T14:02:45.073Z,25.52
2022-12-19T14:05:36.030Z,25.35
2022-12-19T14:08:19.037Z,25.85
2022-12-19T14:11:41.528Z,28.02
2022-12-19T14:14:17.487Z,27.55
2022-12-19T14:16:47.968Z,29.02
2022-12-19T14:19:25.993Z,28.20
2022-12-19T14:22:03.939Z,28.33
2022-12-19T14:24:40.223Z,26.90
2022-12-19T14:28:18.107Z,26.05
2022-12-19T14:30:30.271Z,27.77
2022-12-19T14:33:44.185Z,27.45
2022-12-19T14:36:12.554Z,27.60
2022-12-19T14:39:22.661Z,26.63
2022-12-19T14:41:48.505Z,29.67
2022-12-19T14:52:35.957Z,28.02
2022-12-19T14:53:36.595Z,29.35
2022-12-19T14:54:23.815Z,28.27
2022-12-19T14:54:52.804Z,28.23
2022-12-19T14:59:31.649Z,27.95
2022-12-19T15:02:07.373Z,30.02
2022-12-19T15:04:50.653Z,31.02
2022-12-19T15:07:26.432Z,30.55
2022-12-19T15:11:04.726Z,30.52
2022-12-19T15:14:48.709Z,30.00
2022-12-19T15:16:07.416Z,28.92
2022-12-19T15:18:39.588Z,29.63
2022-12-19T15:21:13.060Z,29.25
2022-12-19T15:23:40.714Z,29.88
2022-12-19T15:26:14.295Z,31.27
2022-12-19T15:28:43.198Z,31.05
2022-12-19T15:31:34.866Z,31.52
2022-12-19T15:34:36.744Z,30.92
2022-12-19T15:37:05.592Z,32.00
2022-12-19T15:39:33.095Z,32.25
2022-12-19T15:42:01.035Z,32.33
2022-12-19T15:44:38.909Z,32.83
2022-12-19T15:47:13.958Z,31.65
2022-12-19T15:49:41.451Z,33.30
2022-12-19T15:52:17.865Z,33.05
2022-12-19T15:54:50.178Z,32.30
2022-12-19T15:57:37.782Z,31.45
2022-12-19T16:00:19.614Z,35.80
2022-12-19T16:03:22.665Z,33.63
2022-12-19T16:05:37.506Z,33.90
2022-12-19T16:08:18.097Z,33.20
2022-12-19T16:10:48.121Z,32.63
2022-12-19T16:13:21.198Z,35.00
2022-12-19T16:15:52.515Z,33.78
2022-12-19T16:18:19.941Z,32.53
2022-12-19T16:20:48.250Z,33.00
2022-12-19T16:23:16.234Z,33.85
2022-12-19T16:25:47.925Z,32.95
2022-12-19T16:28:31.013Z,33.08
2022-12-19T16:30:59.518Z,33.45
2022-12-19T16:33:29.019Z,33.60
2022-12-19T16:36:06.004Z,33.67
2022-12-19T16:38:34.573Z,33.28
2022-12-19T16:41:02.054Z,33.50
2022-12-19T16:43:36.117Z,33.38
2022-12-19T16:46:06.002Z,34.30
2022-12-19T16:48:36.001Z,33.17
2022-12-19T16:51:03.643Z,31.90
2022-12-19T16:53:31.149Z,31.85
2022-12-19T16:56:00.825Z,34.50
2022-12-19T16:58:29.488Z,32.78
2022-12-19T17:00:57.057Z,32.08
2022-12-19T17:03:44.144Z,31.92
2022-12-19T17:06:16.885Z,33.30
2022-12-19T17:08:45.226Z,32.47
2022-12-19T17:11:21.431Z,33.40
2022-12-19T17:13:50.873Z,32.90
2022-12-19T17:18:46.043Z,32.90
2022-12-19T17:21:22.169Z,32.88
2022-12-19T17:23:50.304Z,34.58
2022-12-19T17:26:18.377Z,33.80
2022-12-19T17:28:48.758Z,32.90
2022-12-19T17:31:28.477Z,34.53
2022-12-19T17:33:57.714Z,33.58
2022-12-19T17:36:32.737Z,33.78
2022-12-19T17:39:02.301Z,33.38
2022-12-19T17:41:30.493Z,34.60
2022-12-19T17:43:58.053Z,34.67
2022-12-19T17:46:26.065Z,33.50
2022-12-19T17:48:53.882Z,34.10
2022-12-19T17:51:23.162Z,34.95
2022-12-19T17:53:51.209Z,35.13
2022-12-19T17:56:20.518Z,34.70
2022-12-19T17:58:48.658Z,37.25
2022-12-19T18:01:21.130Z,33.90
2022-12-19T18:03:52.655Z,36.42
2022-12-19T18:06:19.989Z,35.35
2022-12-19T18:08:48.735Z,35.08
2022-12-19T18:11:22.384Z,37.05
2022-12-19T18:13:49.593Z,36.00
2022-12-19T18:16:26.514Z,38.10
2022-12-19T18:18:54.057Z,37.25
2022-12-19T18:21:24.797Z,38.80
2022-12-19T18:23:52.376Z,39.67
2022-12-19T18:26:19.788Z,37.15
2022-12-19T18:28:47.171Z,38.47
2022-12-19T18:31:17.523Z,36.47
2022-12-19T18:33:46.842Z,39.38
2022-12-19T18:36:20.436Z,39.13
2022-12-19T18:38:48.743Z,36.33
2022-12-19T18:41:17.350Z,37.22
2022-12-19T18:43:45.009Z,39.40
2022-12-19T18:46:16.980Z,37.25
2022-12-19T18:48:45.295Z,36.45
2022-12-19T18:51:17.916Z,37.58
2022-12-19T18:53:46.500Z,37.13
2022-12-19T18:56:13.852Z,37.53
2022-12-19T18:58:41.458Z,37.30
2022-12-19T19:01:15.432Z,36.67
2022-12-19T19:03:53.441Z,35.13
2022-12-19T19:06:23.291Z,35.28
2022-12-19T19:08:52.073Z,36.10
2022-12-19T19:11:23.570Z,35.15
2022-12-19T19:13:51.690Z,34.53
2022-12-19T19:16:24.801Z,35.58
2022-12-19T19:18:55.157Z,35.92
2022-12-19T19:21:29.040Z,34.95
2022-12-19T19:24:12.500Z,34.80
2022-12-19T19:26:39.742Z,33.95
2022-12-19T19:29:07.041Z,34.10
2022-12-19T19:31:37.397Z,33.53
2022-12-19T19:34:27.692Z,34.17
2022-12-19T19:36:56.306Z,32.78
2022-12-19T19:39:24.641Z,34.30
2022-12-19T19:41:52.078Z,34.78
2022-12-19T19:44:19.388Z,34.25
2022-12-19T19:46:47.081Z,33.65
2022-12-19T19:49:15.347Z,32.90
2022-12-19T19:51:42.629Z,34.63
2022-12-19T19:54:09.968Z,33.60
2022-12-19T19:56:37.377Z,34.28
2022-12-19T19:59:05.020Z,33.28
2022-12-19T20:01:32.879Z,32.42
2022-12-19T20:04:00.274Z,33.22
2022-12-19T20:06:27.831Z,32.78
2022-12-19T20:08:55.307Z,31.88
2022-12-19T20:11:22.706Z,33.47
2022-12-19T20:13:53.154Z,31.98
2022-12-19T20:16:20.652Z,32.80
2022-12-19T20:18:50.077Z,34.33
2022-12-19T20:21:20.474Z,33.05
2022-12-19T20:23:48.195Z,32.40
2022-12-19T20:26:17.027Z,33.05
2022-12-19T20:28:50.077Z,31.15
2022-12-19T20:31:32.676Z,33.47
2022-12-19T20:34:00.602Z,32.92
2022-12-19T20:36:30.551Z,32.25
2022-12-19T20:38:57.952Z,30.20
2022-12-19T20:41:25.287Z,30.60
2022-12-19T20:43:53.314Z,29.88
2022-12-19T20:46:21.554Z,30.35
2022-12-19T20:48:55.424Z,30.58
2022-12-19T20:51:26.073Z,30.40
2022-12-19T20:53:56.144Z,30.35
2022-12-19T20:56:23.482Z,29.77
2022-12-19T20:58:54.425Z,28.02
2022-12-19T21:01:29.323Z,29.85
2022-12-19T21:03:59.919Z,27.63
2022-12-19T21:06:30.350Z,28.80
2022-12-19T21:09:01.533Z,27.77
2022-12-19T21:11:29.545Z,27.80
2022-12-19T21:14:02.393Z,27.40
2022-12-19T21:16:30.282Z,26.10
2022-12-19T21:21:28.355Z,25.75
2022-12-19T21:24:03.123Z,26.30
2022-12-19T21:26:31.980Z,28.02
2022-12-19T21:28:59.708Z,25.00
2022-12-19T21:31:29.302Z,28.38
2022-12-19T21:34:00.844Z,25.38
2022-12-19T21:36:28.942Z,25.42
2022-12-19T21:38:58.553Z,25.25
2022-12-19T21:41:26.110Z,25.13
2022-12-19T21:43:55.105Z,26.10
2022-12-19T21:46:27.518Z,27.52
2022-12-19T21:48:56.696Z,26.30
2022-12-19T21:51:28.741Z,25.45
2022-12-19T21:53:57.999Z,25.90
2022-12-19T21:56:30.621Z,25.25
2022-12-19T21:59:01.861Z,25.95
2022-12-19T22:01:29.799Z,25.10
2022-12-19T22:04:02.481Z,26.45
2022-12-19T22:06:32.067Z,25.95
2022-12-19T22:09:00.351Z,23.23
2022-12-19T22:11:30.631Z,24.65
2022-12-19T22:14:00.257Z,23.65
2022-12-19T22:16:28.687Z,23.40
2022-12-19T22:18:56.560Z,23.43
2022-12-19T22:21:24.429Z,24.55
2022-12-19T22:23:55.846Z,22.75
2022-12-19T22:26:24.061Z,22.20
2022-12-19T22:28:53.435Z,21.90
2022-12-19T22:33:52.478Z,20.67
2022-12-19T22:36:27.364Z,21.40
2022-12-19T22:38:56.317Z,22.10
2022-12-19T22:41:23.594Z,22.25
2022-12-19T22:43:51.016Z,21.02
2022-12-19T22:46:21.147Z,22.35
2022-12-19T22:48:49.833Z,21.30
2022-12-19T22:51:18.256Z,22.80
2022-12-19T22:53:46.263Z,21.50
2022-12-19T22:56:16.144Z,21.75
2022-12-19T22:58:45.634Z,21.48
2022-12-19T23:01:35.003Z,21.92
2022-12-19T23:04:02.939Z,21.73
2022-12-19T23:06:33.590Z,22.35
2022-12-19T23:09:01.527Z,21.85
2022-12-19T23:11:32.681Z,20.60
2022-12-19T23:14:00.576Z,20.52
2022-12-19T23:16:27.906Z,21.10
2022-12-19T23:18:55.186Z,20.45
2022-12-19T23:21:23.931Z,19.50
2022-12-19T23:23:52.794Z,20.90
2022-12-19T23:26:23.001Z,19.67
2022-12-19T23:29:01.749Z,19.02
2022-12-19T23:31:29.727Z,19.38
2022-12-19T23:33:58.128Z,18.80
2022-12-19T23:36:52.661Z,20.48
2022-12-19T23:39:13.221Z,19.33
2022-12-19T23:41:40.839Z,19.85
2022-12-19T23:44:09.239Z,19.33
2022-12-19T23:46:36.911Z,17.63
2022-12-19T23:49:04.546Z,18.13
2022-12-19T23:51:32.132Z,20.52
2022-12-19T23:53:59.322Z,20.13
2022-12-19T23:56:30.291Z,18.35
2022-12-19T23:58:57.746Z,18.80
